createdAt,value
2018-03-14T00:00:04.929Z,7.60
2018-03-14T00:02:32.797Z,7.50
2018-03-14T00:05:00.664Z,7.50
2018-03-14T00:07:28.531Z,7.50
2018-03-14T00:09:56.398Z,7.40
2018-03-14T00:12:24.265Z,7.40
2018-03-14T00:14:52.132Z,7.50
2018-03-14T00:17:20.000Z,7.50
2018-03-14T00:19:47.867Z,7.50
2018-03-14T00:22:28.432Z,7.50
2018-03-14T00:24:56.302Z,7.50
2018-03-14T00:27:24.167Z,7.50
2018-03-14T00:29:52.046Z,7.40
2018-03-14T00:32:20.621Z,7.20
2018-03-14T00:34:48.487Z,7.20
2018-03-14T00:37:16.354Z,7.10
2018-03-14T00:39:44.221Z,7.00
2018-03-14T00:42:12.088Z,7.00
2018-03-14T00:44:39.955Z,7.00
2018-03-14T00:47:07.824Z,7.10
2018-03-14T00:49:35.691Z,7.10
2018-03-14T00:52:04.378Z,7.00
2018-03-14T00:54:32.248Z,7.00
2018-03-14T00:57:00.830Z,6.90
2018-03-14T00:59:28.699Z,6.90
2018-03-14T01:01:57.284Z,6.90
2018-03-14T01:04:25.148Z,6.90
2018-03-14T01:06:53.016Z,6.90
2018-03-14T01:09:21.702Z,7.00
2018-03-14T01:11:49.569Z,7.00
2018-03-14T01:14:17.436Z,7.00
2018-03-14T01:16:45.303Z,7.00
2018-03-14T01:19:13.169Z,7.00
2018-03-14T01:21:41.038Z,7.00
2018-03-14T01:24:08.905Z,7.00
2018-03-14T01:26:37.490Z,7.20
2018-03-14T01:29:05.356Z,7.20
2018-03-14T01:31:33.942Z,7.20
2018-03-14T01:34:02.628Z,7.20
2018-03-14T01:36:30.494Z,7.20
2018-03-14T01:38:58.361Z,7.30
2018-03-14T01:41:27.047Z,7.30
2018-03-14T01:43:55.734Z,7.30
2018-03-14T01:46:23.601Z,7.30
2018-03-14T01:48:51.468Z,7.30
2018-03-14T01:51:19.336Z,7.00
2018-03-14T01:53:47.134Z,7.00
2018-03-14T01:56:15.788Z,7.00
2018-03-14T01:58:44.372Z,7.00
2018-03-14T02:01:12.238Z,7.00
2018-03-14T02:03:40.106Z,6.90
2018-03-14T02:06:08.792Z,6.90
2018-03-14T02:08:36.659Z,6.90
2018-03-14T02:11:04.528Z,6.90
2018-03-14T02:13:33.220Z,6.80
2018-03-14T02:16:01.900Z,6.80
2018-03-14T02:18:30.484Z,6.80
2018-03-14T02:20:58.351Z,6.70
2018-03-14T02:23:26.218Z,6.70
2018-03-14T02:25:54.906Z,6.70
2018-03-14T02:28:22.773Z,6.70
2018-03-14T02:30:51.459Z,6.80
2018-03-14T02:33:20.043Z,6.80
2018-03-14T02:35:47.911Z,6.80
2018-03-14T02:38:15.779Z,6.80
2018-03-14T02:40:43.648Z,6.80
2018-03-14T02:43:12.331Z,6.80
2018-03-14T02:45:40.203Z,6.80
2018-03-14T02:48:08.067Z,6.80
2018-03-14T02:50:35.933Z,6.90
2018-03-14T02:53:03.802Z,6.90
2018-03-14T02:55:31.672Z,6.80
2018-03-14T02:57:59.536Z,6.80
2018-03-14T03:00:27.405Z,6.80
2018-03-14T03:02:55.271Z,6.80
2018-03-14T03:05:23.138Z,6.70
2018-03-14T03:07:51.005Z,6.60
2018-03-14T03:10:18.873Z,6.70
2018-03-14T03:12:46.795Z,6.70
2018-03-14T03:15:15.426Z,6.80
2018-03-14T03:17:43.298Z,6.80
2018-03-14T03:20:11.161Z,6.80
2018-03-14T03:22:39.020Z,6.80
2018-03-14T03:25:06.900Z,6.80
2018-03-14T03:27:34.763Z,6.80
2018-03-14T03:30:02.632Z,6.80
2018-03-14T03:32:30.497Z,6.70
2018-03-14T03:34:58.366Z,6.60
2018-03-14T03:37:26.232Z,6.70
2018-03-14T03:39:54.099Z,6.70
2018-03-14T03:42:21.966Z,6.70
2018-03-14T03:44:49.834Z,6.70
2018-03-14T03:47:17.701Z,6.60
2018-03-14T03:49:45.568Z,6.50
2018-03-14T03:52:13.436Z,6.40
2018-03-14T03:54:41.304Z,6.30
2018-03-14T03:57:09.171Z,6.30
2018-03-14T03:59:37.037Z,6.30
2018-03-14T04:02:04.906Z,6.30
2018-03-14T04:04:32.772Z,6.40
2018-03-14T04:07:00.640Z,6.30
2018-03-14T04:09:28.439Z,6.30
2018-03-14T04:11:56.989Z,6.40
2018-03-14T04:14:24.856Z,6.40
2018-03-14T04:16:52.723Z,6.30
2018-03-14T04:19:20.591Z,6.20
2018-03-14T04:21:48.458Z,6.30
2018-03-14T04:24:16.329Z,6.30
2018-03-14T04:26:44.122Z,6.30
2018-03-14T04:29:11.958Z,6.30
2018-03-14T04:31:39.825Z,6.40
2018-03-14T04:34:07.692Z,6.50
2018-03-14T04:36:35.560Z,6.50
2018-03-14T04:39:03.359Z,6.40
2018-03-14T04:41:32.015Z,6.10
2018-03-14T04:43:59.879Z,6.10
2018-03-14T04:46:27.755Z,6.20
2018-03-14T04:48:55.614Z,6.30
2018-03-14T04:51:23.482Z,6.40
2018-03-14T04:53:51.349Z,6.30
2018-03-14T04:56:19.251Z,6.30
2018-03-14T04:58:47.799Z,6.40
2018-03-14T05:01:15.670Z,6.40
2018-03-14T05:03:43.537Z,6.50
2018-03-14T05:06:11.401Z,6.50
2018-03-14T05:08:39.269Z,6.60
2018-03-14T05:11:07.136Z,6.70
2018-03-14T05:13:35.004Z,6.70
2018-03-14T05:16:02.871Z,6.70
2018-03-14T05:18:30.738Z,6.50
2018-03-14T05:20:58.606Z,6.50
2018-03-14T05:23:26.473Z,6.50
2018-03-14T05:25:54.340Z,6.50
2018-03-14T05:28:22.210Z,6.60
2018-03-14T05:30:50.075Z,6.60
2018-03-14T05:33:17.942Z,6.60
2018-03-14T05:35:45.812Z,6.60
2018-03-14T05:38:13.677Z,6.60
2018-03-14T05:40:41.544Z,6.70
2018-03-14T05:43:09.410Z,6.70
2018-03-14T05:45:37.279Z,6.70
2018-03-14T05:48:05.145Z,6.70
2018-03-14T05:50:33.019Z,6.80
2018-03-14T05:53:00.880Z,6.80
2018-03-14T05:55:28.750Z,6.80
2018-03-14T05:57:56.619Z,6.90
2018-03-14T06:00:24.491Z,6.90
2018-03-14T06:02:52.350Z,6.90
2018-03-14T06:05:20.170Z,7.00
2018-03-14T06:07:47.982Z,7.10
2018-03-14T06:10:15.849Z,7.10
2018-03-14T06:12:43.716Z,7.20
2018-03-14T06:15:11.589Z,7.20
2018-03-14T06:17:39.451Z,7.30
2018-03-14T06:20:07.319Z,7.30
2018-03-14T06:22:35.235Z,7.30
2018-03-14T06:25:03.874Z,7.40
2018-03-14T06:27:31.741Z,7.40
2018-03-14T06:29:59.607Z,7.40
2018-03-14T06:32:27.476Z,7.50
2018-03-14T06:34:55.344Z,7.50
2018-03-14T06:37:23.210Z,7.50
2018-03-14T06:39:51.078Z,7.50
2018-03-14T06:42:18.944Z,7.50
2018-03-14T06:44:46.813Z,7.50
2018-03-14T06:47:14.683Z,7.60
2018-03-14T06:49:42.548Z,7.60
2018-03-14T06:52:10.415Z,7.70
2018-03-14T06:54:38.283Z,7.70
2018-03-14T06:57:06.149Z,7.60
2018-03-14T06:59:45.896Z,7.60
2018-03-14T07:02:25.641Z,7.60
2018-03-14T07:05:05.284Z,7.60
2018-03-14T07:07:33.151Z,7.60
2018-03-14T07:10:01.019Z,7.70
2018-03-14T07:12:28.783Z,7.70
2018-03-14T07:14:56.650Z,7.80
2018-03-14T07:17:24.527Z,7.90
2018-03-14T07:19:52.384Z,8.00
2018-03-14T07:22:20.150Z,8.10
2018-03-14T07:24:48.016Z,8.60
2018-03-14T07:27:15.885Z,9.20
2018-03-14T07:29:43.751Z,9.30
2018-03-14T07:32:11.655Z,9.10
2018-03-14T07:34:40.306Z,8.80
2018-03-14T07:37:08.174Z,8.80
2018-03-14T07:39:36.040Z,8.70
2018-03-14T07:42:03.908Z,8.80
2018-03-14T07:44:31.776Z,8.90
2018-03-14T07:46:59.642Z,8.90
2018-03-14T07:49:27.509Z,9.00
2018-03-14T07:51:55.379Z,9.10
2018-03-14T07:54:23.244Z,9.30
2018-03-14T07:56:51.111Z,9.80
2018-03-14T07:59:18.979Z,11.40
2018-03-14T08:01:46.846Z,13.60
2018-03-14T08:04:14.713Z,15.90
2018-03-14T08:06:42.580Z,17.30
2018-03-14T08:09:10.447Z,18.60
2018-03-14T08:11:38.315Z,19.40
2018-03-14T08:14:06.117Z,18.50
2018-03-14T08:16:34.766Z,16.60
2018-03-14T08:19:02.635Z,16.50
2018-03-14T08:21:30.501Z,15.90
2018-03-14T08:23:58.369Z,15.90
2018-03-14T08:26:26.235Z,15.60
2018-03-14T08:28:54.103Z,15.40
2018-03-14T08:31:21.970Z,15.30
2018-03-14T08:33:49.840Z,15.10
2018-03-14T08:36:17.705Z,15.10
2018-03-14T08:38:45.572Z,15.50
2018-03-14T08:41:13.440Z,16.70
2018-03-14T08:43:41.307Z,17.50
2018-03-14T08:46:09.175Z,18.20
2018-03-14T08:48:37.041Z,17.80
2018-03-14T08:51:04.909Z,17.30
2018-03-14T08:53:32.779Z,16.80
2018-03-14T08:56:00.643Z,16.20
2018-03-14T08:58:28.510Z,15.80
2018-03-14T09:00:56.378Z,15.50
2018-03-14T09:03:24.244Z,15.30
2018-03-14T09:05:52.112Z,15.20
2018-03-14T09:08:19.981Z,15.30
2018-03-14T09:10:47.848Z,15.60
2018-03-14T09:13:15.714Z,15.50
2018-03-14T09:15:43.582Z,15.30
2018-03-14T09:18:11.450Z,14.90
2018-03-14T09:20:39.316Z,14.40
2018-03-14T09:23:07.904Z,14.00
2018-03-14T09:25:35.768Z,13.80
2018-03-14T09:28:03.636Z,13.80
2018-03-14T09:30:31.502Z,13.80
2018-03-14T09:32:59.371Z,13.70
2018-03-14T09:35:27.237Z,13.80
2018-03-14T09:37:55.104Z,14.00
2018-03-14T09:40:22.972Z,14.00
2018-03-14T09:42:50.839Z,14.00
2018-03-14T09:45:18.748Z,14.00
2018-03-14T09:47:47.321Z,13.70
2018-03-14T09:50:15.160Z,13.70
2018-03-14T09:52:43.024Z,13.60
2018-03-14T09:55:10.893Z,13.50
2018-03-14T09:57:38.775Z,13.50
2018-03-14T10:00:07.447Z,13.60
2018-03-14T10:02:35.313Z,13.60
2018-03-14T10:05:03.182Z,13.70
2018-03-14T10:07:31.048Z,14.00
2018-03-14T10:09:58.916Z,14.30
2018-03-14T10:12:26.786Z,14.40
2018-03-14T10:14:54.651Z,14.60
2018-03-14T10:17:22.518Z,15.20
2018-03-14T10:19:50.385Z,15.80
2018-03-14T10:22:18.254Z,16.30
2018-03-14T10:24:46.122Z,16.60
2018-03-14T10:27:13.985Z,16.30
2018-03-14T10:29:41.853Z,16.20
2018-03-14T10:32:09.722Z,16.20
2018-03-14T10:34:37.588Z,16.40
2018-03-14T10:37:06.276Z,16.70
2018-03-14T10:39:34.143Z,16.70
2018-03-14T10:42:02.010Z,17.00
2018-03-14T10:44:29.878Z,16.80
2018-03-14T10:46:57.745Z,16.90
2018-03-14T10:49:26.456Z,16.80
2018-03-14T10:51:55.117Z,16.70
2018-03-14T10:54:22.985Z,16.70
2018-03-14T10:56:50.852Z,16.70
2018-03-14T10:59:18.720Z,16.60
2018-03-14T11:01:47.509Z,16.80
2018-03-14T11:04:15.376Z,16.80
2018-03-14T11:06:43.243Z,16.70
2018-03-14T11:09:11.111Z,16.70
2018-03-14T11:11:38.977Z,16.90
2018-03-14T11:14:06.846Z,16.90
2018-03-14T11:16:34.713Z,16.80
2018-03-14T11:19:02.580Z,16.30
2018-03-14T11:21:30.513Z,16.40
2018-03-14T11:23:59.134Z,17.30
2018-03-14T11:26:27.002Z,17.20
2018-03-14T11:28:54.975Z,17.60
2018-03-14T11:31:22.838Z,17.90
2018-03-14T11:33:50.707Z,18.00
2018-03-14T11:36:18.575Z,18.00
2018-03-14T11:38:46.440Z,18.30
2018-03-14T11:41:14.311Z,18.80
2018-03-14T11:43:42.174Z,19.00
2018-03-14T11:46:10.042Z,18.90
2018-03-14T11:48:37.956Z,19.10
2018-03-14T11:51:06.597Z,19.30
2018-03-14T11:53:34.463Z,19.30
2018-03-14T11:56:02.323Z,19.50
2018-03-14T11:58:30.197Z,19.50
2018-03-14T12:00:58.064Z,19.70
2018-03-14T12:03:25.933Z,19.70
2018-03-14T12:05:53.800Z,19.40
2018-03-14T12:08:21.667Z,19.40
2018-03-14T12:10:49.535Z,19.10
2018-03-14T12:13:17.401Z,18.50
2018-03-14T12:15:45.263Z,18.40
2018-03-14T12:18:13.136Z,18.60
2018-03-14T12:20:41.003Z,18.70
2018-03-14T12:23:08.870Z,19.00
2018-03-14T12:25:36.738Z,19.70
2018-03-14T12:28:04.605Z,20.30
2018-03-14T12:30:32.479Z,19.80
2018-03-14T12:33:00.341Z,19.10
2018-03-14T12:35:28.207Z,19.40
2018-03-14T12:37:56.080Z,17.60
2018-03-14T12:40:23.943Z,17.70
2018-03-14T12:42:51.809Z,17.80
2018-03-14T12:45:19.683Z,18.10
2018-03-14T12:47:47.477Z,17.90
2018-03-14T12:50:16.128Z,17.20
2018-03-14T12:52:44.021Z,17.20
2018-03-14T12:55:12.682Z,16.80
2018-03-14T12:57:40.551Z,16.80
2018-03-14T13:00:08.421Z,16.80
2018-03-14T13:02:36.284Z,16.70
2018-03-14T13:05:04.158Z,16.60
2018-03-14T13:07:32.019Z,16.70
2018-03-14T13:09:59.886Z,17.00
2018-03-14T13:12:27.754Z,17.20
2018-03-14T13:14:55.620Z,17.20
2018-03-14T13:17:23.489Z,17.20
2018-03-14T13:19:51.356Z,17.00
2018-03-14T13:22:19.230Z,16.90
2018-03-14T13:24:47.090Z,16.90
2018-03-14T13:27:14.961Z,16.30
2018-03-14T13:29:42.825Z,15.80
2018-03-14T13:32:10.692Z,15.40
2018-03-14T13:34:38.561Z,15.00
2018-03-14T13:37:06.427Z,14.70
2018-03-14T13:39:34.295Z,14.70
2018-03-14T13:42:02.164Z,14.70
2018-03-14T13:44:30.035Z,14.70
2018-03-14T13:46:57.897Z,14.80
2018-03-14T13:49:25.763Z,14.70
2018-03-14T13:51:53.632Z,14.60
2018-03-14T13:54:21.500Z,14.70
2018-03-14T13:56:49.366Z,14.70
2018-03-14T13:59:17.232Z,14.80
2018-03-14T14:01:46.022Z,14.80
2018-03-14T14:04:13.889Z,14.70
2018-03-14T14:06:41.757Z,14.50
2018-03-14T14:09:09.623Z,14.30
2018-03-14T14:11:37.491Z,14.30
2018-03-14T14:14:05.359Z,14.40
2018-03-14T14:16:33.226Z,14.10
2018-03-14T14:19:01.093Z,13.90
2018-03-14T14:21:28.960Z,14.20
2018-03-14T14:23:56.827Z,14.50
2018-03-14T14:26:24.695Z,14.80
2018-03-14T14:28:52.563Z,15.20
2018-03-14T14:31:20.429Z,15.60
2018-03-14T14:33:48.297Z,15.70
2018-03-14T14:36:16.164Z,15.50
2018-03-14T14:38:44.031Z,15.20
2018-03-14T14:41:11.899Z,15.20
2018-03-14T14:43:39.766Z,14.80
2018-03-14T14:46:07.633Z,14.90
2018-03-14T14:48:35.501Z,14.10
2018-03-14T14:51:03.368Z,13.70
2018-03-14T14:53:31.252Z,13.70
2018-03-14T14:55:59.104Z,13.40
2018-03-14T14:58:26.970Z,13.30
2018-03-14T15:00:54.838Z,13.10
2018-03-14T15:03:22.733Z,13.40
2018-03-14T15:05:50.574Z,13.30
2018-03-14T15:08:18.440Z,13.40
2018-03-14T15:10:46.307Z,13.30
2018-03-14T15:13:14.175Z,12.80
2018-03-14T15:15:42.050Z,12.60
2018-03-14T15:18:09.913Z,12.60
2018-03-14T15:20:37.780Z,12.80
2018-03-14T15:23:05.643Z,12.70
2018-03-14T15:25:33.511Z,12.80
2018-03-14T15:28:01.382Z,13.00
2018-03-14T15:30:29.246Z,13.10
2018-03-14T15:32:57.113Z,13.30
2018-03-14T15:35:24.979Z,13.50
2018-03-14T15:37:52.848Z,13.70
2018-03-14T15:40:20.715Z,13.70
2018-03-14T15:42:48.582Z,13.50
2018-03-14T15:45:16.449Z,13.70
2018-03-14T15:47:44.317Z,14.10
2018-03-14T15:50:12.186Z,14.30
2018-03-14T15:52:40.052Z,14.40
2018-03-14T15:55:08.021Z,14.20
2018-03-14T15:57:35.889Z,13.90
2018-03-14T16:00:03.759Z,13.20
2018-03-14T16:02:31.623Z,13.10
2018-03-14T16:04:59.490Z,12.90
2018-03-14T16:07:27.358Z,12.60
2018-03-14T16:09:55.224Z,12.30
2018-03-14T16:12:23.148Z,12.00
2018-03-14T16:14:51.779Z,11.80
2018-03-14T16:17:19.681Z,11.70
2018-03-14T16:19:48.334Z,11.90
2018-03-14T16:22:16.200Z,11.90
2018-03-14T16:24:44.068Z,11.70
2018-03-14T16:27:11.866Z,11.80
2018-03-14T16:29:40.519Z,11.50
2018-03-14T16:32:08.390Z,11.40
2018-03-14T16:34:36.253Z,11.30
2018-03-14T16:37:04.121Z,11.20
2018-03-14T16:39:31.991Z,10.90
2018-03-14T16:41:59.856Z,10.80
2018-03-14T16:44:27.723Z,10.80
2018-03-14T16:46:55.589Z,10.70
2018-03-14T16:49:23.462Z,10.50
2018-03-14T16:51:51.325Z,10.30
2018-03-14T16:54:19.193Z,10.20
2018-03-14T16:56:47.060Z,10.20
2018-03-14T16:59:14.926Z,10.10
2018-03-14T17:01:42.794Z,10.00
2018-03-14T17:04:10.661Z,10.00
2018-03-14T17:06:38.528Z,10.00
2018-03-14T17:09:06.396Z,10.00
2018-03-14T17:11:34.263Z,10.10
2018-03-14T17:14:02.130Z,10.20
2018-03-14T17:16:29.998Z,10.10
2018-03-14T17:18:57.865Z,10.10
2018-03-14T17:21:25.735Z,10.00
2018-03-14T17:23:53.600Z,10.00
2018-03-14T17:26:21.469Z,10.00
2018-03-14T17:28:49.335Z,9.90
2018-03-14T17:31:17.204Z,9.90
2018-03-14T17:33:45.089Z,9.90
2018-03-14T17:36:12.936Z,9.90
2018-03-14T17:38:40.804Z,9.80
2018-03-14T17:41:08.672Z,9.80
2018-03-14T17:43:36.538Z,9.70
2018-03-14T17:46:04.405Z,9.60
2018-03-14T17:48:32.273Z,9.60
2018-03-14T17:51:00.141Z,9.60
2018-03-14T17:53:28.007Z,9.50
2018-03-14T17:55:55.875Z,9.50
2018-03-14T17:58:23.742Z,9.50
2018-03-14T18:00:51.609Z,9.50
2018-03-14T18:03:19.477Z,9.50
2018-03-14T18:05:47.347Z,9.40
2018-03-14T18:08:15.211Z,9.30
2018-03-14T18:10:43.079Z,9.30
2018-03-14T18:13:10.945Z,9.30
2018-03-14T18:15:38.813Z,9.20
2018-03-14T18:18:06.681Z,9.10
2018-03-14T18:20:34.549Z,9.00
2018-03-14T18:23:02.415Z,9.00
2018-03-14T18:25:30.282Z,8.90
2018-03-14T18:27:58.150Z,8.80
2018-03-14T18:30:26.017Z,8.80
2018-03-14T18:32:53.884Z,8.70
2018-03-14T18:35:21.751Z,8.60
2018-03-14T18:37:49.619Z,8.50
2018-03-14T18:40:17.383Z,8.50
2018-03-14T18:42:45.251Z,8.40
2018-03-14T18:45:13.117Z,8.30
2018-03-14T18:47:40.985Z,8.30
2018-03-14T18:50:08.916Z,8.20
2018-03-14T18:52:37.540Z,8.10
2018-03-14T18:55:05.407Z,8.10
2018-03-14T18:57:33.275Z,8.00
2018-03-14T19:00:01.146Z,7.90
2018-03-14T19:02:29.008Z,7.90
2018-03-14T19:04:56.876Z,7.90
2018-03-14T19:07:24.758Z,7.80
2018-03-14T19:09:52.627Z,7.70
2018-03-14T19:12:20.478Z,7.70
2018-03-14T19:14:48.346Z,7.60
2018-03-14T19:17:16.222Z,7.60
2018-03-14T19:19:44.081Z,7.50
2018-03-14T19:22:11.947Z,7.50
2018-03-14T19:24:39.815Z,7.50
2018-03-14T19:27:07.685Z,7.50
2018-03-14T19:29:35.549Z,7.40
2018-03-14T19:32:03.416Z,7.30
2018-03-14T19:34:31.284Z,7.20
2018-03-14T19:36:59.154Z,7.20
2018-03-14T19:39:27.019Z,7.10
2018-03-14T19:41:54.887Z,7.00
2018-03-14T19:44:22.754Z,7.00
2018-03-14T19:46:50.620Z,6.90
2018-03-14T19:49:18.488Z,6.90
2018-03-14T19:51:46.355Z,6.80
2018-03-14T19:54:14.222Z,6.80
2018-03-14T19:56:42.090Z,6.80
2018-03-14T19:59:09.957Z,6.80
2018-03-14T20:01:37.878Z,6.70
2018-03-14T20:04:06.510Z,6.70
2018-03-14T20:06:34.379Z,6.70
2018-03-14T20:09:02.291Z,6.70
2018-03-14T20:11:30.932Z,6.60
2018-03-14T20:13:58.799Z,6.60
2018-03-14T20:16:26.666Z,6.60
2018-03-14T20:18:54.534Z,6.50
2018-03-14T20:21:22.402Z,6.50
2018-03-14T20:23:56.314Z,6.50
2018-03-14T20:26:24.178Z,6.40
2018-03-14T20:28:52.045Z,6.40
2018-03-14T20:31:20.017Z,6.40
2018-03-14T20:33:47.882Z,6.30
2018-03-14T20:36:15.748Z,6.20
2018-03-14T20:38:43.616Z,6.20
2018-03-14T20:41:11.484Z,6.10
2018-03-14T20:43:39.351Z,6.10
2018-03-14T20:46:07.218Z,6.10
2018-03-14T20:48:35.085Z,6.00
2018-03-14T20:51:02.953Z,6.00
2018-03-14T20:53:30.820Z,6.00
2018-03-14T20:55:58.709Z,6.00
2018-03-14T20:58:26.555Z,6.00
2018-03-14T21:00:54.422Z,5.90
2018-03-14T21:03:22.290Z,5.90
2018-03-14T21:05:50.157Z,5.90
2018-03-14T21:08:18.024Z,5.90
2018-03-14T21:10:45.891Z,5.90
2018-03-14T21:13:13.758Z,5.80
2018-03-14T21:15:41.626Z,5.80
2018-03-14T21:18:09.494Z,5.70
2018-03-14T21:20:37.360Z,5.70
2018-03-14T21:23:05.126Z,5.70
2018-03-14T21:25:32.922Z,5.60
2018-03-14T21:28:01.474Z,5.60
2018-03-14T21:30:29.342Z,5.60
2018-03-14T21:32:57.209Z,5.60
2018-03-14T21:35:25.077Z,5.60
2018-03-14T21:37:52.943Z,5.60
2018-03-14T21:40:20.812Z,5.60
2018-03-14T21:42:48.682Z,5.60
2018-03-14T21:45:16.575Z,5.60
2018-03-14T21:47:45.233Z,5.50
2018-03-14T21:50:13.100Z,5.50
2018-03-14T21:52:40.967Z,5.50
2018-03-14T21:55:08.835Z,5.50
2018-03-14T21:57:36.703Z,5.60
2018-03-14T22:00:04.674Z,5.60
2018-03-14T22:02:32.640Z,5.50
2018-03-14T22:05:00.574Z,5.60
2018-03-14T22:07:29.195Z,5.60
2018-03-14T22:09:57.062Z,5.50
2018-03-14T22:12:24.929Z,5.50
2018-03-14T22:14:53.615Z,5.40
2018-03-14T22:17:21.483Z,5.40
2018-03-14T22:19:49.386Z,5.50
2018-03-14T22:22:18.038Z,5.40
2018-03-14T22:24:45.905Z,5.30
2018-03-14T22:27:13.774Z,5.30
2018-03-14T22:29:41.644Z,5.30
2018-03-14T22:32:09.509Z,5.30
2018-03-14T22:34:37.375Z,5.20
2018-03-14T22:37:05.264Z,5.20
2018-03-14T22:39:33.929Z,5.10
2018-03-14T22:42:01.796Z,5.10
2018-03-14T22:44:29.664Z,5.10
2018-03-14T22:46:57.568Z,5.10
2018-03-14T22:49:26.218Z,5.00
2018-03-14T22:51:54.085Z,5.00
2018-03-14T22:54:21.951Z,5.00
2018-03-14T22:56:49.820Z,4.90
2018-03-14T22:59:17.586Z,4.90
2018-03-14T23:01:45.451Z,4.90
2018-03-14T23:04:13.318Z,4.90
2018-03-14T23:06:41.186Z,4.90
2018-03-14T23:09:09.053Z,4.90
2018-03-14T23:11:36.921Z,4.90
2018-03-14T23:14:04.788Z,5.00
2018-03-14T23:16:32.655Z,5.00
2018-03-14T23:19:00.523Z,4.90
2018-03-14T23:21:28.389Z,4.90
2018-03-14T23:23:56.256Z,4.90
2018-03-14T23:26:24.125Z,5.00
2018-03-14T23:28:51.992Z,5.00
2018-03-14T23:31:19.860Z,5.10
2018-03-14T23:33:47.726Z,5.10
2018-03-14T23:36:15.593Z,5.10
2018-03-14T23:38:43.460Z,5.10
2018-03-14T23:41:11.328Z,5.10
2018-03-14T23:43:39.198Z,5.00
2018-03-14T23:46:07.062Z,5.00
2018-03-14T23:48:34.929Z,4.90
2018-03-14T23:51:02.797Z,4.80
2018-03-14T23:53:30.663Z,4.80
2018-03-14T23:55:58.531Z,4.70
2018-03-14T23:58:26.398Z,4.60
